New Richmond Regional Airport
KRNH : now visible

Airfield :











YOU CAN JOIN US ON...

 
LOGIN :

Register | Disclaimer

   EN    FR    IT 

 









Legend :    VFR   Marginal VFR   IFR   Intensive IFR   Very Intensive IFR
Visi :
Ceiling :
>= 8 km
>= 3000ft
5 to 8 km
1000 to 3000 ft
1500m to 5 km
500 to 1000 ft
800 to 1500m
200 to 500 ft
< 800m
< 200 ft
Symbols :   Thunderstorms  Fog  Heavy snow  Heavy precipitations  Wind > 20 kt






- Airport Elevation : 998 ft


KRNH - New Richmond Regional

CURRENT METAR :
  • 261555Z AUTO 06005KT 10SM OVC050 15/11 A2971 RMK AO2 T01450111

EXPIRED METARs :
  • 261535Z AUTO 05004KT 10SM OVC050 15/11 A2971 RMK AO2 T01470108
  • 261515Z AUTO 06003KT 10SM SCT043 OVC050 15/11 A2972 RMK AO2 T01540111
  • 261455Z AUTO 05007KT 10SM BKN043 OVC055 15/11 A2972 RMK AO2 T01530112
  • 261435Z AUTO 04006KT 10SM BKN043 OVC070 15/11 A2972 RMK AO2 T01520110
  • 261415Z AUTO 05005KT 10SM OVC070 15/11 A2972 RMK AO2 T01510111
  • 261355Z AUTO 05003KT 10SM OVC070 15/11 A2971 RMK AO2 T01490105
  • 261335Z AUTO 06003KT 10SM BKN060 OVC090 15/11 A2971 RMK AO2 T01490108
  • 261315Z AUTO 11003KT 10SM SCT060 OVC090 15/11 A2970 RMK AO2 T01500106
  • 261255Z AUTO 10005KT 10SM SCT049 BKN060 OVC100 15/11 A2970 RMK AO2 T01470108
  • 261235Z AUTO 13004KT 10SM -RA SCT060 BKN070 BKN120 15/11 A2970 RMK AO2 T01460105
  • 261215Z AUTO 10006KT 10SM SCT120 14/11 A2969 RMK AO2 T01440105
  • 261155Z AUTO 10006KT 10SM SCT120 15/10 A2970 RMK AO2 T01450102 10145 20127
  • 261135Z AUTO 09005KT 10SM SCT120 14/10 A2970 RMK AO2 T01430102
  • 261115Z AUTO 08006KT 10SM CLR 14/10 A2970 RMK AO2 T01420100

TAF KRNH
Valid from the 26 at 12:00 until the 27 at 12:00 UTC


261135Z 2612/2712 09006KT P6SM BKN150
FM261400 12007KT P6SM SCT025 OVC050
TEMPO 2614/2618 5SM -RA BR BKN025
FM261900 08014KT P6SM OVC022
FM262100 04009KT P6SM SCT025 OVC050
FM270400 36004KT P6SM FEW200
FM271100 32004KT P6SM BKN140
KZMP FIR / North America



MET'MAP, your aeronautical weather chart ! - Copyright ORBIFLY December 2007 - Disclaimer

ORBIFLY MET'MAP TEAM :

Programming & Development : Alexandra Zaïnal
Original concept : Baudouin d'Aumeries
Technical & hardware support : Manuel Goepfert
Assistance : Marc-Olivier Méhu




SOURCES & CREDITS :

   NOAA       Earth
Advisory